createdAt,value
2022-12-05T00:01:28.568Z,20.00
2022-12-05T00:03:58.679Z,20.00
2022-12-05T00:06:27.431Z,19.90
2022-12-05T00:08:55.257Z,19.90
2022-12-05T00:11:26.151Z,19.90
2022-12-05T00:13:55.341Z,19.90
2022-12-05T00:16:25.298Z,19.90
2022-12-05T00:18:53.150Z,19.90
2022-12-05T00:21:22.880Z,20.00
2022-12-05T00:23:51.033Z,19.90
2022-12-05T00:26:18.090Z,19.90
2022-12-05T00:28:45.387Z,19.90
2022-12-05T00:31:17.103Z,19.90
2022-12-05T00:33:44.974Z,19.90
2022-12-05T00:36:18.904Z,19.90
2022-12-05T00:38:45.951Z,19.90
2022-12-05T00:41:16.109Z,19.90
2022-12-05T00:43:44.074Z,19.90
2022-12-05T00:46:24.339Z,19.90
2022-12-05T00:48:53.957Z,19.90
2022-12-05T00:51:23.949Z,19.90
2022-12-05T00:53:51.154Z,19.90
2022-12-05T00:56:22.080Z,19.90
2022-12-05T00:58:51.351Z,19.90
2022-12-05T01:01:23.104Z,19.90
2022-12-05T01:03:53.142Z,20.00
2022-12-05T01:06:21.721Z,19.90
2022-12-05T01:08:49.829Z,20.00
2022-12-05T01:11:18.998Z,20.00
2022-12-05T01:13:46.700Z,19.90
2022-12-05T01:16:23.256Z,20.00
2022-12-05T01:18:51.246Z,19.90
2022-12-05T01:21:19.115Z,20.00
2022-12-05T01:23:46.400Z,20.00
2022-12-05T01:26:15.892Z,19.90
2022-12-05T01:28:43.099Z,19.90
2022-12-05T01:31:25.128Z,19.90
2022-12-05T01:33:53.989Z,19.90
2022-12-05T01:36:22.534Z,19.90
2022-12-05T01:38:50.001Z,19.90
2022-12-05T01:41:19.721Z,19.90
2022-12-05T01:44:08.033Z,19.90
2022-12-05T01:46:44.250Z,19.90
2022-12-05T01:49:16.431Z,19.90
2022-12-05T01:51:47.383Z,19.90
2022-12-05T01:54:16.298Z,19.90
2022-12-05T01:56:49.890Z,19.90
2022-12-05T01:59:19.030Z,19.90
2022-12-05T02:01:46.148Z,19.90
2022-12-05T02:04:14.006Z,19.90
2022-12-05T02:06:41.327Z,19.90
2022-12-05T02:09:08.374Z,19.90
2022-12-05T02:11:41.966Z,19.90
2022-12-05T02:14:45.196Z,19.90
2022-12-05T02:17:52.630Z,19.90
2022-12-05T02:20:41.897Z,19.90
2022-12-05T02:23:40.652Z,19.90
2022-12-05T02:26:47.118Z,19.90
2022-12-05T02:29:49.083Z,19.90
2022-12-05T02:32:41.310Z,19.90
2022-12-05T02:35:34.467Z,19.90
2022-12-05T02:38:28.383Z,19.90
2022-12-05T02:41:34.959Z,19.90
2022-12-05T02:44:08.076Z,19.90
2022-12-05T02:46:39.266Z,19.90
2022-12-05T02:49:10.490Z,19.90
2022-12-05T02:51:46.503Z,19.80
2022-12-05T02:54:19.809Z,19.90
2022-12-05T02:56:48.408Z,19.80
2022-12-05T02:59:21.479Z,19.80
2022-12-05T03:01:51.534Z,19.80
2022-12-05T03:04:21.824Z,19.80
2022-12-05T03:07:03.592Z,19.80
2022-12-05T03:09:39.790Z,19.80
2022-12-05T03:12:26.838Z,19.80
2022-12-05T03:15:09.729Z,19.80
2022-12-05T03:17:57.227Z,19.80
2022-12-05T03:20:32.312Z,19.90
2022-12-05T03:23:05.520Z,19.90
2022-12-05T03:25:52.963Z,19.90
2022-12-05T03:28:37.322Z,19.90
2022-12-05T03:31:09.408Z,19.90
2022-12-05T03:33:42.830Z,19.90
2022-12-05T03:36:23.599Z,19.90
2022-12-05T03:39:06.536Z,19.90
2022-12-05T03:41:45.699Z,19.90
2022-12-05T03:44:22.145Z,19.90
2022-12-05T03:47:05.933Z,19.90
2022-12-05T03:49:47.994Z,19.80
2022-12-05T03:52:51.054Z,19.80
2022-12-05T03:55:26.748Z,19.90
2022-12-05T03:58:02.494Z,19.90
2022-12-05T04:00:34.673Z,19.80
2022-12-05T04:03:09.281Z,19.80
2022-12-05T04:05:48.507Z,19.90
2022-12-05T04:08:30.983Z,19.80
2022-12-05T04:11:03.138Z,19.90
2022-12-05T04:13:40.940Z,19.80
2022-12-05T04:16:37.031Z,19.80
2022-12-05T04:19:26.470Z,19.80
2022-12-05T04:21:56.276Z,19.80
2022-12-05T04:24:50.488Z,19.80
2022-12-05T04:27:52.566Z,19.80
2022-12-05T04:30:37.311Z,19.80
2022-12-05T04:33:17.488Z,19.80
2022-12-05T04:36:08.652Z,19.80
2022-12-05T04:38:50.539Z,19.80
2022-12-05T04:41:28.803Z,19.80
2022-12-05T04:43:59.549Z,19.80
2022-12-05T04:46:26.643Z,19.80
2022-12-05T04:48:59.057Z,19.80
2022-12-05T04:51:30.069Z,19.80
2022-12-05T04:54:05.127Z,19.80
2022-12-05T04:56:36.848Z,19.80
2022-12-05T04:59:04.594Z,19.80
2022-12-05T05:01:37.855Z,19.80
2022-12-05T05:04:30.902Z,19.80
2022-12-05T05:06:58.062Z,19.80
2022-12-05T05:09:25.324Z,19.80
2022-12-05T05:11:52.445Z,19.80
2022-12-05T05:14:19.457Z,19.70
2022-12-05T05:16:47.581Z,19.70
2022-12-05T05:19:14.745Z,19.70
2022-12-05T05:21:43.423Z,19.70
2022-12-05T05:24:12.008Z,19.70
2022-12-05T05:26:41.219Z,19.80
2022-12-05T05:29:09.736Z,19.70
2022-12-05T05:31:37.962Z,19.70
2022-12-05T05:34:09.407Z,19.70
2022-12-05T05:36:37.950Z,19.70
2022-12-05T05:39:06.994Z,19.80
2022-12-05T05:41:36.379Z,19.80
2022-12-05T05:44:04.579Z,19.80
2022-12-05T05:46:33.897Z,19.80
2022-12-05T05:49:01.034Z,19.80
2022-12-05T05:51:29.554Z,19.80
2022-12-05T05:53:58.654Z,19.80
2022-12-05T05:56:25.911Z,19.90
2022-12-05T05:58:58.296Z,19.80
2022-12-05T06:01:25.324Z,19.80
2022-12-05T06:03:52.763Z,19.80
2022-12-05T06:06:21.565Z,19.80
2022-12-05T06:08:48.910Z,19.80
2022-12-05T06:11:26.157Z,19.70
2022-12-05T06:13:56.239Z,19.70
2022-12-05T06:16:23.362Z,19.70
2022-12-05T06:18:51.568Z,19.70
2022-12-05T06:21:18.603Z,19.70
2022-12-05T06:23:45.923Z,19.70
2022-12-05T06:26:16.503Z,19.80
2022-12-05T06:28:43.592Z,19.80
2022-12-05T06:31:13.562Z,19.80
2022-12-05T06:33:42.104Z,19.80
2022-12-05T06:36:12.523Z,19.80
2022-12-05T06:38:42.222Z,19.90
2022-12-05T06:41:12.251Z,19.90
2022-12-05T06:43:39.382Z,19.90
2022-12-05T06:46:08.092Z,20.00
2022-12-05T06:48:35.809Z,20.00
2022-12-05T06:51:02.880Z,20.00
2022-12-05T06:53:30.153Z,20.10
2022-12-05T06:56:03.723Z,20.10
2022-12-05T06:58:31.098Z,20.10
2022-12-05T07:01:18.148Z,20.10
2022-12-05T07:03:45.308Z,20.20
2022-12-05T07:06:12.441Z,20.20
2022-12-05T07:08:39.480Z,20.20
2022-12-05T07:11:06.599Z,20.20
2022-12-05T07:13:33.779Z,20.30
2022-12-05T07:16:01.224Z,20.30
2022-12-05T07:18:29.155Z,20.40
2022-12-05T07:21:14.325Z,20.40
2022-12-05T07:23:43.893Z,20.50
2022-12-05T07:26:15.684Z,20.50
2022-12-05T07:28:43.826Z,20.60
2022-12-05T07:31:22.231Z,20.60
2022-12-05T07:33:50.255Z,20.60
2022-12-05T07:36:20.524Z,20.70
2022-12-05T07:38:48.483Z,20.70
2022-12-05T07:41:21.855Z,20.80
2022-12-05T07:43:50.823Z,20.70
2022-12-05T07:46:18.278Z,20.80
2022-12-05T07:48:45.787Z,20.80
2022-12-05T07:51:12.835Z,20.90
2022-12-05T07:53:43.016Z,20.90
2022-12-05T07:56:11.165Z,20.90
2022-12-05T07:58:38.502Z,20.90
2022-12-05T08:01:10.949Z,21.00
2022-12-05T08:03:38.641Z,21.00
2022-12-05T08:06:10.190Z,21.00
2022-12-05T08:08:37.962Z,21.00
2022-12-05T08:11:08.315Z,21.10
2022-12-05T08:13:35.631Z,21.10
2022-12-05T08:16:04.836Z,21.10
2022-12-05T08:18:32.524Z,21.10
2022-12-05T08:21:19.499Z,21.10
2022-12-05T08:23:47.492Z,21.20
2022-12-05T08:26:21.401Z,21.20
2022-12-05T08:28:53.824Z,21.20
2022-12-05T08:31:24.438Z,21.20
2022-12-05T08:33:58.781Z,21.30
2022-12-05T08:36:29.199Z,21.20
2022-12-05T08:38:58.070Z,21.30
2022-12-05T08:41:29.250Z,21.30
2022-12-05T08:43:58.270Z,21.30
2022-12-05T08:46:25.705Z,21.30
2022-12-05T08:48:52.976Z,21.30
2022-12-05T08:51:20.016Z,21.30
2022-12-05T08:53:47.213Z,21.30
2022-12-05T08:56:14.466Z,21.30
2022-12-05T08:58:42.390Z,21.30
2022-12-05T09:01:12.658Z,21.30
2022-12-05T09:03:47.310Z,21.30
2022-12-05T09:06:20.988Z,21.30
2022-12-05T09:08:48.603Z,21.30
2022-12-05T09:11:24.013Z,21.30
2022-12-05T09:13:53.576Z,21.30
2022-12-05T09:16:23.297Z,21.30
2022-12-05T09:18:52.386Z,21.30
2022-12-05T09:21:22.528Z,21.30
2022-12-05T09:23:50.502Z,21.30
2022-12-05T09:26:20.039Z,21.30
2022-12-05T09:28:47.564Z,21.40
2022-12-05T09:31:17.748Z,21.40
2022-12-05T09:33:45.651Z,21.40
2022-12-05T09:36:16.720Z,21.40
2022-12-05T09:38:44.303Z,21.40
2022-12-05T09:42:04.510Z,21.40
2022-12-05T09:45:12.762Z,21.50
2022-12-05T09:47:58.280Z,21.50
2022-12-05T09:50:40.247Z,21.50
2022-12-05T09:53:29.154Z,21.50
2022-12-05T09:56:28.580Z,21.50
2022-12-05T09:58:57.621Z,21.60
2022-12-05T10:01:42.585Z,21.60
2022-12-05T10:04:40.222Z,21.60
2022-12-05T10:07:31.987Z,21.60
2022-12-05T10:10:38.794Z,21.60
2022-12-05T10:13:33.154Z,21.60
2022-12-05T10:16:07.522Z,21.70
2022-12-05T10:18:43.871Z,21.60
2022-12-05T10:21:18.684Z,21.70
2022-12-05T10:23:59.697Z,21.70
2022-12-05T10:26:46.753Z,21.70
2022-12-05T10:29:44.434Z,21.70
2022-12-05T10:32:19.040Z,21.80
2022-12-05T10:34:46.570Z,21.80
2022-12-05T10:37:19.678Z,21.80
2022-12-05T10:39:48.885Z,21.80
2022-12-05T10:42:23.511Z,21.80
2022-12-05T10:44:57.377Z,21.80
2022-12-05T10:47:24.919Z,21.80
2022-12-05T10:49:54.382Z,21.90
2022-12-05T10:52:21.430Z,21.90
2022-12-05T10:54:56.340Z,21.90
2022-12-05T10:57:26.669Z,21.90
2022-12-05T10:59:56.634Z,21.90
2022-12-05T11:02:33.898Z,21.90
2022-12-05T11:05:01.341Z,21.90
2022-12-05T11:07:35.515Z,21.90
2022-12-05T11:10:23.578Z,22.00
2022-12-05T11:12:55.141Z,22.00
2022-12-05T11:15:25.895Z,22.00
2022-12-05T11:17:54.838Z,22.10
2022-12-05T11:20:36.035Z,22.00
2022-12-05T11:23:24.228Z,22.10
2022-12-05T11:25:51.715Z,22.10
2022-12-05T11:28:34.442Z,22.10
2022-12-05T11:31:25.612Z,22.10
2022-12-05T11:34:21.503Z,22.10
2022-12-05T11:36:58.144Z,22.10
2022-12-05T11:39:26.134Z,22.10
2022-12-05T11:42:33.734Z,22.10
2022-12-05T11:45:39.662Z,22.00
2022-12-05T11:48:27.625Z,22.00
2022-12-05T11:51:21.778Z,22.10
2022-12-05T11:55:02.952Z,22.10
2022-12-05T11:57:54.237Z,22.10
2022-12-05T12:00:55.457Z,22.20
2022-12-05T12:04:02.191Z,22.20
2022-12-05T12:06:53.612Z,22.20
2022-12-05T12:09:35.106Z,22.20
2022-12-05T12:12:22.972Z,22.30
2022-12-05T12:15:28.414Z,22.30
2022-12-05T12:18:21.038Z,22.30
2022-12-05T12:21:20.840Z,22.30
2022-12-05T12:24:17.368Z,22.30
2022-12-05T12:27:09.545Z,22.30
2022-12-05T12:30:13.759Z,22.40
2022-12-05T12:33:12.230Z,22.40
2022-12-05T12:35:55.853Z,22.40
2022-12-05T12:38:53.490Z,22.40
2022-12-05T12:41:47.020Z,22.40
2022-12-05T12:44:49.751Z,22.40
2022-12-05T12:47:44.032Z,22.40
2022-12-05T12:50:23.974Z,22.40
2022-12-05T12:53:30.783Z,22.50
2022-12-05T12:56:29.274Z,22.40
2022-12-05T12:59:21.492Z,22.40
2022-12-05T13:02:03.167Z,22.40
2022-12-05T13:04:40.445Z,22.40
2022-12-05T13:07:33.877Z,22.50
2022-12-05T13:10:11.982Z,22.40
2022-12-05T13:12:41.487Z,22.50
2022-12-05T13:15:16.274Z,22.50
2022-12-05T13:17:46.969Z,22.50
2022-12-05T13:20:20.699Z,22.50
2022-12-05T13:22:52.502Z,22.50
2022-12-05T13:25:26.028Z,22.50
2022-12-05T13:28:00.351Z,22.50
2022-12-05T13:30:28.518Z,22.50
2022-12-05T13:32:58.421Z,22.50
2022-12-05T13:35:52.712Z,22.50
2022-12-05T13:38:50.437Z,22.50
2022-12-05T13:41:37.606Z,22.50
2022-12-05T13:44:12.592Z,22.50
2022-12-05T13:46:42.559Z,22.50
2022-12-05T13:49:31.300Z,22.50
2022-12-05T13:52:08.414Z,22.50
2022-12-05T13:54:44.402Z,22.50
2022-12-05T13:57:46.237Z,22.50
2022-12-05T14:00:34.997Z,22.60
2022-12-05T14:03:05.680Z,22.60
2022-12-05T14:05:39.502Z,22.60
2022-12-05T14:08:45.343Z,22.60
2022-12-05T14:11:12.870Z,22.60
2022-12-05T14:13:42.765Z,22.60
2022-12-05T14:16:42.281Z,22.60
2022-12-05T14:19:39.717Z,22.60
2022-12-05T14:22:39.649Z,22.60
2022-12-05T14:25:27.272Z,22.60
2022-12-05T14:28:13.604Z,22.60
2022-12-05T14:31:20.420Z,22.60
2022-12-05T14:34:25.205Z,22.60
2022-12-05T14:37:00.838Z,22.60
2022-12-05T14:39:37.833Z,22.60
2022-12-05T14:42:19.982Z,22.60
2022-12-05T14:44:49.128Z,22.60
2022-12-05T14:47:23.167Z,22.60
2022-12-05T14:50:02.422Z,22.50
2022-12-05T14:52:31.417Z,22.50
2022-12-05T14:55:09.103Z,22.50
2022-12-05T14:57:47.718Z,22.50
2022-12-05T15:00:22.914Z,22.50
2022-12-05T15:02:53.029Z,22.50
2022-12-05T15:05:28.542Z,22.50
2022-12-05T15:07:57.763Z,22.50
2022-12-05T15:10:33.340Z,22.50
2022-12-05T15:13:05.557Z,22.50
2022-12-05T15:15:44.403Z,22.50
2022-12-05T15:18:45.542Z,22.50
2022-12-05T15:21:39.142Z,22.50
2022-12-05T15:24:16.100Z,22.50
2022-12-05T15:26:50.430Z,22.50
2022-12-05T15:29:28.121Z,22.50
2022-12-05T15:32:17.747Z,22.50
2022-12-05T15:35:02.116Z,22.50
2022-12-05T15:37:48.638Z,22.50
2022-12-05T15:40:20.808Z,22.50
2022-12-05T15:42:51.537Z,22.40
2022-12-05T15:45:27.715Z,22.40
2022-12-05T15:47:57.749Z,22.40
2022-12-05T15:50:35.081Z,22.40
2022-12-05T15:53:28.352Z,22.20
2022-12-05T15:56:16.782Z,22.20
2022-12-05T15:59:16.327Z,22.20
2022-12-05T16:01:52.663Z,22.20
2022-12-05T16:04:45.655Z,22.10
2022-12-05T16:07:15.020Z,22.10
2022-12-05T16:09:44.501Z,22.00
2022-12-05T16:12:37.715Z,22.00
2022-12-05T16:15:18.402Z,22.00
2022-12-05T16:17:53.122Z,21.90
2022-12-05T16:20:24.610Z,21.90
2022-12-05T16:22:55.266Z,21.80
2022-12-05T16:25:28.755Z,21.80
2022-12-05T16:28:02.446Z,21.80
2022-12-05T16:30:30.854Z,21.80
2022-12-05T16:33:17.736Z,21.70
2022-12-05T16:35:46.236Z,21.70
2022-12-05T16:38:31.994Z,21.70
2022-12-05T16:41:01.549Z,21.70
2022-12-05T16:43:45.414Z,21.70
2022-12-05T16:46:42.054Z,21.70
2022-12-05T16:49:33.877Z,21.60
2022-12-05T16:52:14.535Z,21.60
2022-12-05T16:54:42.796Z,21.60
2022-12-05T16:57:14.129Z,21.50
2022-12-05T16:59:43.714Z,21.50
2022-12-05T17:02:17.530Z,21.50
2022-12-05T17:04:46.813Z,21.50
2022-12-05T17:07:14.710Z,21.50
2022-12-05T17:09:41.679Z,21.50
2022-12-05T17:12:18.430Z,21.50
2022-12-05T17:14:47.250Z,21.40
2022-12-05T17:17:16.096Z,21.40
2022-12-05T17:19:43.176Z,21.40
2022-12-05T17:22:12.249Z,21.40
2022-12-05T17:24:39.306Z,21.40
2022-12-05T17:27:10.434Z,21.40
2022-12-05T17:29:37.611Z,21.40
2022-12-05T17:32:05.123Z,21.40
2022-12-05T17:34:32.108Z,21.30
2022-12-05T17:37:00.402Z,21.30
2022-12-05T17:39:28.751Z,21.30
2022-12-05T17:41:56.331Z,21.30
2022-12-05T17:44:23.576Z,21.30
2022-12-05T17:46:50.697Z,21.30
2022-12-05T17:49:18.488Z,21.30
2022-12-05T17:52:13.369Z,21.30
2022-12-05T17:54:32.751Z,21.20
2022-12-05T17:56:59.756Z,21.20
2022-12-05T17:59:26.797Z,21.20
2022-12-05T18:01:53.872Z,21.20
2022-12-05T18:04:23.369Z,21.20
2022-12-05T18:06:51.084Z,21.20
2022-12-05T18:09:18.559Z,21.20
2022-12-05T18:11:45.585Z,21.10
2022-12-05T18:14:12.728Z,21.20
2022-12-05T18:16:39.822Z,21.10
2022-12-05T18:19:08.666Z,21.10
2022-12-05T18:21:35.872Z,21.10
2022-12-05T18:24:03.323Z,21.10
2022-12-05T18:26:31.532Z,21.10
2022-12-05T18:28:59.473Z,21.10
2022-12-05T18:31:26.601Z,21.00
2022-12-05T18:33:53.727Z,21.00
2022-12-05T18:36:21.576Z,21.00
2022-12-05T18:38:55.040Z,21.00
2022-12-05T18:41:27.378Z,21.00
2022-12-05T18:43:54.471Z,21.00
2022-12-05T18:46:21.714Z,21.00
2022-12-05T18:48:49.084Z,21.00
2022-12-05T18:51:19.326Z,21.00
2022-12-05T18:53:52.518Z,21.00
2022-12-05T18:56:26.489Z,21.00
2022-12-05T18:58:57.629Z,21.00
2022-12-05T19:01:25.888Z,21.00
2022-12-05T19:03:53.342Z,21.00
2022-12-05T19:06:23.095Z,21.00
2022-12-05T19:08:54.405Z,21.00
2022-12-05T19:11:21.980Z,21.00
2022-12-05T19:13:49.279Z,21.00
2022-12-05T19:16:18.639Z,21.00
2022-12-05T19:18:46.787Z,20.90
2022-12-05T19:21:14.309Z,21.00
2022-12-05T19:23:41.539Z,20.90
2022-12-05T19:26:09.780Z,20.90
2022-12-05T19:28:37.934Z,20.90
2022-12-05T19:31:08.129Z,20.90
2022-12-05T19:33:37.950Z,20.90
2022-12-05T19:36:08.523Z,20.90
2022-12-05T19:38:36.099Z,20.90
2022-12-05T19:41:04.456Z,20.80
2022-12-05T19:43:33.984Z,20.80
2022-12-05T19:46:11.312Z,20.80
2022-12-05T19:48:39.250Z,20.80
2022-12-05T19:51:07.490Z,20.80
2022-12-05T19:53:37.313Z,20.80
2022-12-05T19:56:08.849Z,20.80
2022-12-05T19:58:36.711Z,20.80
2022-12-05T20:01:10.222Z,20.80
2022-12-05T20:03:37.599Z,20.80
2022-12-05T20:06:05.759Z,20.80
2022-12-05T20:08:34.506Z,20.80
2022-12-05T20:11:07.291Z,20.80
2022-12-05T20:13:52.007Z,20.80
2022-12-05T20:16:21.768Z,20.80
2022-12-05T20:18:50.372Z,20.70
2022-12-05T20:21:22.042Z,20.70
2022-12-05T20:23:49.918Z,20.70
2022-12-05T20:26:19.999Z,20.70
2022-12-05T20:28:47.840Z,20.70
2022-12-05T20:31:23.593Z,20.70
2022-12-05T20:33:53.021Z,20.70
2022-12-05T20:36:26.075Z,20.70
2022-12-05T20:38:59.027Z,20.70
2022-12-05T20:41:27.562Z,20.70
2022-12-05T20:43:58.230Z,20.70
2022-12-05T20:46:26.030Z,20.70
2022-12-05T20:48:53.647Z,20.70
2022-12-05T20:51:24.127Z,20.60
2022-12-05T20:53:51.622Z,20.60
2022-12-05T20:56:25.414Z,20.60
2022-12-05T20:58:55.969Z,20.60
2022-12-05T21:01:24.085Z,20.60
2022-12-05T21:03:52.454Z,20.60
2022-12-05T21:06:25.314Z,20.60
2022-12-05T21:08:53.142Z,20.60
2022-12-05T21:11:20.826Z,20.60
2022-12-05T21:13:48.246Z,20.60
2022-12-05T21:16:18.734Z,20.60
2022-12-05T21:18:46.094Z,20.60
2022-12-05T21:21:22.404Z,20.60
2022-12-05T21:23:55.079Z,20.60
2022-12-05T21:26:23.127Z,20.60
2022-12-05T21:28:50.323Z,20.60
2022-12-05T21:31:21.836Z,20.60
2022-12-05T21:34:01.311Z,20.60
2022-12-05T21:36:30.493Z,20.60
2022-12-05T21:38:57.566Z,20.60
2022-12-05T21:41:26.077Z,20.60
2022-12-05T21:43:55.285Z,20.60
2022-12-05T21:46:24.029Z,20.60
2022-12-05T21:48:51.278Z,20.60
2022-12-05T21:51:18.348Z,20.60
2022-12-05T21:53:45.441Z,20.60
2022-12-05T21:56:15.815Z,20.60
2022-12-05T21:58:43.560Z,20.60
2022-12-05T22:01:17.516Z,20.60
2022-12-05T22:03:44.924Z,20.60
2022-12-05T22:06:14.778Z,20.50
2022-12-05T22:08:41.801Z,20.60
2022-12-05T22:11:24.038Z,20.50
2022-12-05T22:13:51.808Z,20.50
2022-12-05T22:16:19.833Z,20.50
2022-12-05T22:18:47.494Z,20.50
2022-12-05T22:21:17.109Z,20.50
2022-12-05T22:23:44.346Z,20.50
2022-12-05T22:26:14.546Z,20.50
2022-12-05T22:28:41.635Z,20.50
2022-12-05T22:31:12.904Z,20.50
2022-12-05T22:33:42.120Z,20.50
2022-12-05T22:36:11.639Z,20.50
2022-12-05T22:38:42.863Z,20.50
2022-12-05T22:41:23.438Z,20.50
2022-12-05T22:43:54.154Z,20.50
2022-12-05T22:46:21.490Z,20.50
2022-12-05T22:48:49.893Z,20.50
2022-12-05T22:51:18.800Z,20.50
2022-12-05T22:53:46.259Z,20.50
2022-12-05T22:56:15.687Z,20.50
2022-12-05T22:58:43.547Z,20.40
2022-12-05T23:01:16.832Z,20.50
2022-12-05T23:03:45.330Z,20.50
2022-12-05T23:06:13.944Z,20.40
2022-12-05T23:08:42.638Z,20.40
2022-12-05T23:11:11.195Z,20.40
2022-12-05T23:13:38.770Z,20.40
2022-12-05T23:16:21.432Z,20.40
2022-12-05T23:18:50.535Z,20.40
2022-12-05T23:21:21.224Z,20.40
2022-12-05T23:23:51.644Z,20.40
2022-12-05T23:26:20.116Z,20.40
2022-12-05T23:28:47.376Z,20.40
2022-12-05T23:31:14.626Z,20.40
2022-12-05T23:33:42.180Z,20.40
2022-12-05T23:36:10.529Z,20.40
2022-12-05T23:38:39.099Z,20.40
2022-12-05T23:41:19.083Z,20.40
2022-12-05T23:43:47.420Z,20.40
2022-12-05T23:46:16.126Z,20.40
2022-12-05T23:48:43.491Z,20.40
2022-12-05T23:51:13.442Z,20.40
2022-12-05T23:53:42.490Z,20.50
2022-12-05T23:56:14.029Z,20.40
2022-12-05T23:58:41.183Z,20.40
